Time;durP1;ratioP1;P1;durP2;ratioP2;P2;SDS_P1;SDS_P2;PMS_P1;PMS_P2;Temp;Humidity;BMP_temperature;BMP_pressure;BME280_temperature;BME280_humidity;BME280_pressure;Samples;Min_cycle;Max_cycle;Signal;HPM_P1;HPM_P2
2023/01/28 00:01:57;;;;;;;;;;;3.50;99.90;;;;;;5010325;28;19913;-71
2023/01/28 00:04:23;;;;;;;;;;;3.50;99.90;;;;;;5001122;28;19960;-71
2023/01/28 00:06:48;;;;;;;;;;;3.60;99.90;;;;;;5008381;28;19925;-70
2023/01/28 00:09:14;;;;;;;;;;;3.50;99.90;;;;;;5008724;28;20016;-71
2023/01/28 00:11:39;;;;;;;;;;;3.50;99.90;;;;;;5001841;28;19914;-71
2023/01/28 00:14:06;;;;;;;;;;;3.50;99.90;;;;;;5009234;28;20432;-72
2023/01/28 00:16:31;;;;;;;;;;;3.50;99.90;;;;;;5001475;28;19969;-72
2023/01/28 00:18:57;;;;;;;;;;;3.70;99.90;;;;;;4995213;28;20003;-71
2023/01/28 00:21:22;;;;;;;;;;;3.70;99.90;;;;;;5010473;28;19918;-71
2023/01/28 00:23:53;;;;;;;;;;;3.60;99.90;;;;;;5006953;28;19913;-71
2023/01/28 00:26:19;;;;;;;;;;;3.50;99.90;;;;;;5006445;28;19957;-71
2023/01/28 00:28:44;;;;;;;;;;;3.60;99.90;;;;;;5021252;28;19917;-71
2023/01/28 00:31:30;;;;;;;;;;;3.50;99.90;;;;;;5012370;28;19917;-70
2023/01/28 00:33:56;;;;;;;;;;;3.50;99.90;;;;;;5017582;28;19909;-71
2023/01/28 00:36:23;;;;;;;;;;;3.60;99.90;;;;;;5022799;28;19917;-71
2023/01/28 00:38:50;;;;;;;;;;;3.80;99.90;;;;;;5023602;28;19931;-71
2023/01/28 00:41:16;;;;;;;;;;;3.80;99.90;;;;;;5019978;28;19913;-70
2023/01/28 00:43:43;;;;;;;;;;;3.90;99.90;;;;;;5017063;28;20299;-70
2023/01/28 00:46:10;;;;;;;;;;;3.90;99.90;;;;;;5013763;28;19918;-72
2023/01/28 00:48:36;;;;;;;;;;;4.00;99.90;;;;;;5016062;28;20004;-70
2023/01/28 00:51:02;;;;;;;;;;;3.80;99.90;;;;;;5016869;28;20570;-70
2023/01/28 00:53:27;;;;;;;;;;;3.70;99.90;;;;;;5020142;28;19922;-71
2023/01/28 00:55:53;;;;;;;;;;;3.60;99.90;;;;;;5013652;28;19914;-70
2023/01/28 00:58:19;;;;;;;;;;;3.50;99.90;;;;;;5018136;28;19917;-71
2023/01/28 01:00:45;;;;;;;;;;;3.50;99.90;;;;;;5026333;28;19913;-69
2023/01/28 01:03:10;;;;;;;;;;;3.50;99.90;;;;;;5016770;28;19924;-70
2023/01/28 01:05:36;;;;;;;;;;;3.50;99.90;;;;;;5013620;28;20011;-71
2023/01/28 01:08:01;;;;;;;;;;;3.40;99.90;;;;;;5005574;28;19921;-71
2023/01/28 01:10:27;;;;;;;;;;;3.40;99.90;;;;;;5010786;28;21715;-70
2023/01/28 01:12:52;;;;;;;;;;;3.40;99.90;;;;;;5008691;28;19920;-72
2023/01/28 01:15:18;;;;;;;;;;;3.30;99.90;;;;;;5005419;28;19921;-71
2023/01/28 01:17:45;;;;;;;;;;;3.40;99.90;;;;;;5005297;28;20288;-71
2023/01/28 01:20:12;;;;;;;;;;;3.40;99.90;;;;;;5007636;28;20313;-71
2023/01/28 01:22:37;;;;;;;;;;;3.40;99.90;;;;;;5003003;28;19925;-70
2023/01/28 01:25:04;;;;;;;;;;;3.60;99.90;;;;;;5010214;28;20235;-71
2023/01/28 01:27:29;;;;;;;;;;;3.50;99.90;;;;;;5004639;28;19965;-71
2023/01/28 01:29:55;;;;;;;;;;;3.50;99.90;;;;;;5009495;28;19971;-70
2023/01/28 01:32:21;;;;;;;;;;;3.40;99.90;;;;;;5011021;28;19955;-70
2023/01/28 01:34:47;;;;;;;;;;;3.30;99.90;;;;;;5006576;28;19989;-71
2023/01/28 01:37:12;;;;;;;;;;;3.20;99.90;;;;;;5014949;28;19920;-71
2023/01/28 01:39:38;;;;;;;;;;;3.30;99.90;;;;;;5005584;28;19914;-73
2023/01/28 01:42:03;;;;;;;;;;;3.30;99.90;;;;;;5010582;28;19944;-72
2023/01/28 01:44:48;;;;;;;;;;;3.40;99.90;;;;;;5000102;28;19925;-70
2023/01/28 01:47:15;;;;;;;;;;;3.30;99.90;;;;;;5004928;28;20367;-71
2023/01/28 01:49:41;;;;;;;;;;;3.20;99.90;;;;;;4998698;28;19914;-70
2023/01/28 01:52:09;;;;;;;;;;;3.20;99.90;;;;;;5008710;28;19910;-71
2023/01/28 01:54:35;;;;;;;;;;;3.20;99.90;;;;;;5002477;28;19952;-73
2023/01/28 01:57:02;;;;;;;;;;;3.20;99.90;;;;;;5008608;28;19910;-70
2023/01/28 01:59:28;;;;;;;;;;;3.20;99.90;;;;;;5004381;28;19913;-73
2023/01/28 02:01:54;;;;;;;;;;;3.20;99.90;;;;;;5013782;28;19910;-72
2023/01/28 02:04:37;;;;;;;;;;;3.20;99.90;;;;;;4999481;28;19909;-71
2023/01/28 02:07:04;;;;;;;;;;;3.20;99.90;;;;;;4996855;28;19918;-71
2023/01/28 02:09:31;;;;;;;;;;;3.30;99.90;;;;;;5000698;28;19921;-72
2023/01/28 02:12:16;;;;;;;;;;;3.30;99.90;;;;;;5013662;28;19910;-71
2023/01/28 02:15:11;;;;;;;;;;;3.30;99.90;;;;;;5007827;28;19951;-70
2023/01/28 02:17:37;;;;;;;;;;;3.30;99.90;;;;;;5017925;28;20005;-71
2023/01/28 02:20:04;;;;;;;;;;;3.20;99.90;;;;;;5036082;28;19914;-71
2023/01/28 02:22:36;;;;;;;;;;;3.10;99.90;;;;;;5037024;28;19917;-70
2023/01/28 02:25:04;;;;;;;;;;;3.00;99.90;;;;;;5022473;28;19909;-70
2023/01/28 02:27:30;;;;;;;;;;;3.10;99.90;;;;;;5005889;28;19968;-71
2023/01/28 02:30:06;;;;;;;;;;;3.20;99.90;;;;;;5004387;28;19953;-71
2023/01/28 02:32:41;;;;;;;;;;;3.20;99.90;;;;;;5001550;28;19957;-70
2023/01/28 02:35:26;;;;;;;;;;;3.20;99.90;;;;;;5007740;28;19920;-71
2023/01/28 02:37:54;;;;;;;;;;;3.20;99.90;;;;;;5015765;28;20005;-71
2023/01/28 02:40:26;;;;;;;;;;;3.40;99.90;;;;;;5005765;28;20032;-70
2023/01/28 02:42:52;;;;;;;;;;;3.40;99.90;;;;;;5012652;28;19964;-71
2023/01/28 02:45:19;;;;;;;;;;;3.40;99.90;;;;;;5012012;28;19910;-71
2023/01/28 02:47:57;;;;;;;;;;;3.40;99.90;;;;;;5021749;28;19939;-69
2023/01/28 02:50:24;;;;;;;;;;;3.40;99.90;;;;;;5006498;28;19913;-71
2023/01/28 02:56:03;;;;;;;;;;;3.10;99.90;;;;;;5003649;28;19920;-71
2023/01/28 02:58:47;;;;;;;;;;;3.20;99.90;;;;;;5003735;28;19913;-71
2023/01/28 03:01:19;;;;;;;;;;;3.10;99.90;;;;;;4999746;28;19971;-71
2023/01/28 03:03:59;;;;;;;;;;;3.00;99.90;;;;;;5006487;28;19937;-70
2023/01/28 03:06:35;;;;;;;;;;;3.00;99.90;;;;;;5018228;28;19991;-73
2023/01/28 03:09:21;;;;;;;;;;;3.00;99.90;;;;;;5009014;28;19909;-72
2023/01/28 03:36:50;;;;;;;;;;;3.10;99.90;;;;;;5015570;28;19967;-72
2023/01/28 03:39:21;;;;;;;;;;;3.00;99.90;;;;;;5005015;28;19909;-71
2023/01/28 03:42:02;;;;;;;;;;;3.00;99.90;;;;;;5008975;28;20371;-71
2023/01/28 03:47:12;;;;;;;;;;;3.00;99.90;;;;;;5000365;28;19924;-75
2023/01/28 03:49:43;;;;;;;;;;;3.00;99.90;;;;;;5014105;28;19909;-70
2023/01/28 03:52:09;;;;;;;;;;;2.90;99.90;;;;;;5013781;28;19932;-71
2023/01/28 03:54:34;;;;;;;;;;;3.00;99.90;;;;;;5014815;28;20582;-71
2023/01/28 03:57:00;;;;;;;;;;;3.00;99.90;;;;;;5006554;28;19913;-71
2023/01/28 03:59:25;;;;;;;;;;;3.00;99.90;;;;;;5006734;28;19920;-71
2023/01/28 04:01:51;;;;;;;;;;;3.10;99.90;;;;;;5011178;28;19924;-71
2023/01/28 04:04:23;;;;;;;;;;;3.10;99.90;;;;;;5000440;28;19914;-71
2023/01/28 04:06:52;;;;;;;;;;;3.10;99.90;;;;;;5000446;28;20417;-70
2023/01/28 04:09:18;;;;;;;;;;;3.00;99.90;;;;;;5001279;28;19972;-70
2023/01/28 04:11:44;;;;;;;;;;;3.00;99.90;;;;;;5013750;28;20411;-71
2023/01/28 04:14:09;;;;;;;;;;;3.00;99.90;;;;;;5010684;28;19924;-71
2023/01/28 04:16:35;;;;;;;;;;;3.00;99.90;;;;;;5015489;28;19909;-71
2023/01/28 04:19:00;;;;;;;;;;;3.00;99.90;;;;;;5010104;28;20008;-71
2023/01/28 04:21:26;;;;;;;;;;;3.20;99.90;;;;;;5017396;28;19976;-70
2023/01/28 04:23:51;;;;;;;;;;;3.10;99.90;;;;;;5011035;28;20391;-73
2023/01/28 04:26:17;;;;;;;;;;;3.20;99.90;;;;;;5016081;28;19913;-73
2023/01/28 04:28:42;;;;;;;;;;;3.20;99.90;;;;;;5029198;28;20012;-73
2023/01/28 04:31:08;;;;;;;;;;;3.20;99.90;;;;;;5010639;28;20519;-75
2023/01/28 04:33:33;;;;;;;;;;;3.20;99.90;;;;;;5002248;28;19916;-72
2023/01/28 04:35:58;;;;;;;;;;;3.10;99.90;;;;;;5013905;28;19999;-72
2023/01/28 04:38:24;;;;;;;;;;;3.10;99.90;;;;;;5014104;28;19913;-74
2023/01/28 04:40:50;;;;;;;;;;;2.90;99.90;;;;;;5016411;28;19918;-76
2023/01/28 04:43:16;;;;;;;;;;;2.90;99.90;;;;;;5018727;28;19917;-72
2023/01/28 04:45:42;;;;;;;;;;;2.90;99.90;;;;;;5010825;28;19910;-72
2023/01/28 04:48:08;;;;;;;;;;;3.00;99.90;;;;;;5017070;28;20017;-74
2023/01/28 04:50:33;;;;;;;;;;;3.00;99.90;;;;;;5016348;28;19949;-76
2023/01/28 04:52:59;;;;;;;;;;;3.00;99.90;;;;;;5020247;28;19916;-75
2023/01/28 04:55:24;;;;;;;;;;;2.90;99.90;;;;;;5011336;28;19916;-73
2023/01/28 04:57:50;;;;;;;;;;;2.90;99.90;;;;;;5023257;28;20384;-73
2023/01/28 05:00:16;;;;;;;;;;;3.00;99.90;;;;;;5020075;28;19909;-74
2023/01/28 05:02:41;;;;;;;;;;;3.10;99.90;;;;;;5010001;28;19913;-73
2023/01/28 05:05:09;;;;;;;;;;;3.00;99.90;;;;;;5014269;28;20355;-72
2023/01/28 05:07:35;;;;;;;;;;;3.10;99.90;;;;;;5015605;28;19921;-73
2023/01/28 05:10:01;;;;;;;;;;;3.20;99.90;;;;;;5017967;28;19945;-73
2023/01/28 05:12:26;;;;;;;;;;;3.10;99.90;;;;;;5012086;28;19957;-75
2023/01/28 05:14:52;;;;;;;;;;;3.00;99.90;;;;;;5013674;28;19917;-73
2023/01/28 05:17:17;;;;;;;;;;;3.10;99.90;;;;;;5016896;28;19988;-74
2023/01/28 05:19:45;;;;;;;;;;;3.00;99.90;;;;;;5009220;28;19918;-75
2023/01/28 05:22:10;;;;;;;;;;;3.00;99.90;;;;;;5006150;28;19909;-73
2023/01/28 05:24:36;;;;;;;;;;;3.10;99.90;;;;;;4998838;28;19964;-74
2023/01/28 05:27:01;;;;;;;;;;;3.20;99.90;;;;;;5015284;28;21476;-77
2023/01/28 05:29:27;;;;;;;;;;;3.10;99.90;;;;;;5011678;28;20618;-77
2023/01/28 05:31:52;;;;;;;;;;;2.90;99.90;;;;;;5013165;28;20004;-75
2023/01/28 05:34:18;;;;;;;;;;;2.90;99.90;;;;;;5022171;28;19967;-75
2023/01/28 05:36:43;;;;;;;;;;;2.90;99.90;;;;;;5018155;28;19910;-74
2023/01/28 05:39:09;;;;;;;;;;;3.00;99.90;;;;;;5008486;28;19917;-73
2023/01/28 05:41:34;;;;;;;;;;;3.00;99.90;;;;;;5011725;28;20110;-74
2023/01/28 05:44:00;;;;;;;;;;;3.00;99.90;;;;;;5013509;28;19937;-80
2023/01/28 05:46:25;;;;;;;;;;;3.20;99.90;;;;;;5023240;28;20101;-73
2023/01/28 05:48:51;;;;;;;;;;;3.30;99.90;;;;;;5021868;28;20012;-75
2023/01/28 05:51:16;;;;;;;;;;;3.20;99.90;;;;;;5037238;28;20003;-73
2023/01/28 05:53:42;;;;;;;;;;;3.20;99.90;;;;;;5034281;28;20406;-73
2023/01/28 05:56:07;;;;;;;;;;;3.30;99.90;;;;;;5027386;28;19909;-72
2023/01/28 05:58:33;;;;;;;;;;;3.20;99.90;;;;;;5021513;28;19924;-77
2023/01/28 06:00:58;;;;;;;;;;;3.10;99.90;;;;;;5019245;28;19952;-73
2023/01/28 06:03:24;;;;;;;;;;;3.00;99.90;;;;;;5013570;28;19914;-74
2023/01/28 06:05:49;;;;;;;;;;;3.10;99.90;;;;;;5014354;28;19920;-75
2023/01/28 06:08:15;;;;;;;;;;;3.10;99.90;;;;;;5025023;28;20379;-75
2023/01/28 06:10:40;;;;;;;;;;;3.20;99.90;;;;;;5007456;28;20381;-75
2023/01/28 06:13:06;;;;;;;;;;;3.30;99.90;;;;;;5021163;28;19920;-77
2023/01/28 06:15:32;;;;;;;;;;;3.20;99.90;;;;;;5014070;28;20034;-77
2023/01/28 06:17:57;;;;;;;;;;;3.10;99.90;;;;;;5000217;28;19941;-77
2023/01/28 06:20:23;;;;;;;;;;;3.00;99.90;;;;;;5007583;28;20653;-72
2023/01/28 06:22:50;;;;;;;;;;;3.00;99.90;;;;;;5021598;28;19917;-76
2023/01/28 06:25:15;;;;;;;;;;;2.80;99.90;;;;;;5031932;28;20283;-77
2023/01/28 06:27:41;;;;;;;;;;;2.80;99.90;;;;;;5026588;28;19910;-76
2023/01/28 06:30:06;;;;;;;;;;;2.80;99.90;;;;;;5027666;28;19913;-73
2023/01/28 06:32:32;;;;;;;;;;;2.80;99.90;;;;;;5023950;28;19913;-76
2023/01/28 06:34:58;;;;;;;;;;;2.80;99.90;;;;;;5016919;28;19948;-74
2023/01/28 06:37:23;;;;;;;;;;;2.80;99.90;;;;;;5012466;28;19916;-76
2023/01/28 06:39:49;;;;;;;;;;;2.80;99.90;;;;;;5027010;28;20130;-77
2023/01/28 06:42:14;;;;;;;;;;;2.70;99.90;;;;;;5021946;28;19956;-74
2023/01/28 06:44:40;;;;;;;;;;;2.70;99.90;;;;;;5037270;28;19925;-78
2023/01/28 06:47:06;;;;;;;;;;;2.70;99.90;;;;;;5026633;28;19916;-74
2023/01/28 06:49:31;;;;;;;;;;;2.70;99.90;;;;;;5025707;28;19948;-76
2023/01/28 06:51:57;;;;;;;;;;;2.80;99.90;;;;;;5013531;28;19933;-73
2023/01/28 06:54:22;;;;;;;;;;;2.80;99.90;;;;;;5011385;28;19991;-74
2023/01/28 06:56:48;;;;;;;;;;;2.80;99.90;;;;;;5003568;28;19921;-76
2023/01/28 06:59:13;;;;;;;;;;;2.80;99.90;;;;;;5001450;28;19914;-74
2023/01/28 07:01:39;;;;;;;;;;;2.90;99.90;;;;;;5013538;28;19917;-74
2023/01/28 07:04:05;;;;;;;;;;;2.80;99.90;;;;;;5001986;28;19914;-76
2023/01/28 07:06:30;;;;;;;;;;;2.80;99.90;;;;;;5012015;28;19931;-72
2023/01/28 07:08:56;;;;;;;;;;;2.80;99.90;;;;;;5025444;28;19913;-78
2023/01/28 07:11:21;;;;;;;;;;;2.90;99.90;;;;;;5013633;28;19909;-77
2023/01/28 07:13:48;;;;;;;;;;;2.80;99.90;;;;;;5007684;28;20652;-80
2023/01/28 07:16:14;;;;;;;;;;;2.70;99.90;;;;;;5008223;28;19917;-75
2023/01/28 07:18:40;;;;;;;;;;;2.70;99.90;;;;;;5011719;28;19929;-77
2023/01/28 07:21:05;;;;;;;;;;;2.70;99.90;;;;;;5009334;28;19925;-76
2023/01/28 07:23:31;;;;;;;;;;;2.60;99.90;;;;;;5001346;28;19983;-75
2023/01/28 07:26:00;;;;;;;;;;;2.60;99.90;;;;;;5008653;28;20016;-79
2023/01/28 07:28:26;;;;;;;;;;;2.60;99.90;;;;;;5010202;28;20012;-79
2023/01/28 07:30:52;;;;;;;;;;;2.60;99.90;;;;;;5004070;28;20008;-73
2023/01/28 07:33:17;;;;;;;;;;;2.50;99.90;;;;;;5013592;28;19937;-74
2023/01/28 07:35:44;;;;;;;;;;;2.50;99.90;;;;;;5009580;28;19914;-76
2023/01/28 07:38:09;;;;;;;;;;;2.60;99.90;;;;;;5008609;28;19909;-77
2023/01/28 07:40:35;;;;;;;;;;;2.50;99.90;;;;;;5017326;28;19916;-78
2023/01/28 07:43:00;;;;;;;;;;;2.50;99.90;;;;;;5012479;28;19992;-73
2023/01/28 07:45:29;;;;;;;;;;;2.50;99.90;;;;;;5019427;28;20390;-74
2023/01/28 07:48:02;;;;;;;;;;;2.60;99.90;;;;;;5016375;28;19913;-75
2023/01/28 07:50:29;;;;;;;;;;;2.60;99.90;;;;;;5018827;28;19937;-75
2023/01/28 07:52:55;;;;;;;;;;;2.60;99.90;;;;;;5014363;28;19917;-73
2023/01/28 07:55:21;;;;;;;;;;;2.60;99.90;;;;;;5019408;28;20613;-75
2023/01/28 07:57:47;;;;;;;;;;;2.60;99.90;;;;;;5013587;28;20625;-73
2023/01/28 08:00:13;;;;;;;;;;;2.60;99.90;;;;;;5005031;28;20004;-73
2023/01/28 08:02:39;;;;;;;;;;;2.70;99.90;;;;;;4998098;28;20065;-76
2023/01/28 08:05:04;;;;;;;;;;;2.70;99.90;;;;;;5000898;28;19997;-76
2023/01/28 08:07:30;;;;;;;;;;;2.70;99.90;;;;;;5010531;28;19929;-75
2023/01/28 08:09:55;;;;;;;;;;;2.70;99.90;;;;;;5004216;28;19916;-72
2023/01/28 08:12:21;;;;;;;;;;;2.80;99.90;;;;;;5001844;28;19913;-75
2023/01/28 08:14:46;;;;;;;;;;;2.70;99.90;;;;;;5005534;28;19992;-72
2023/01/28 08:17:12;;;;;;;;;;;2.70;99.90;;;;;;5004202;28;19918;-74
2023/01/28 08:19:37;;;;;;;;;;;2.70;99.90;;;;;;5005548;28;19910;-78
2023/01/28 08:22:02;;;;;;;;;;;2.80;99.90;;;;;;5001960;28;20470;-73
2023/01/28 08:24:28;;;;;;;;;;;2.80;99.90;;;;;;5005636;28;19914;-76
2023/01/28 08:26:53;;;;;;;;;;;2.90;99.90;;;;;;5004777;28;19964;-75
2023/01/28 08:29:19;;;;;;;;;;;2.80;99.90;;;;;;4996087;28;19932;-72
2023/01/28 08:31:44;;;;;;;;;;;2.80;99.90;;;;;;5003723;28;19920;-73
2023/01/28 08:34:10;;;;;;;;;;;2.80;99.90;;;;;;4991915;28;19984;-75
2023/01/28 08:36:36;;;;;;;;;;;2.80;99.90;;;;;;5001395;28;20039;-76
2023/01/28 08:39:02;;;;;;;;;;;2.80;99.90;;;;;;5005958;28;19975;-72
2023/01/28 08:41:28;;;;;;;;;;;2.80;99.90;;;;;;5006189;28;19917;-72
2023/01/28 08:43:54;;;;;;;;;;;2.80;99.90;;;;;;5007143;28;19920;-77
2023/01/28 08:46:19;;;;;;;;;;;2.80;99.90;;;;;;5006549;28;19913;-75
2023/01/28 08:48:44;;;;;;;;;;;2.80;99.90;;;;;;5001650;28;19988;-75
2023/01/28 08:51:10;;;;;;;;;;;3.00;99.90;;;;;;4999342;28;19924;-73
2023/01/28 08:53:35;;;;;;;;;;;3.00;99.90;;;;;;5002201;28;19920;-74
2023/01/28 08:56:01;;;;;;;;;;;3.10;99.90;;;;;;5009141;28;19955;-78
2023/01/28 08:58:26;;;;;;;;;;;3.10;99.90;;;;;;5011045;28;19909;-76
2023/01/28 09:00:52;;;;;;;;;;;3.00;99.90;;;;;;4998170;28;19909;-74
2023/01/28 09:03:17;;;;;;;;;;;2.80;99.90;;;;;;5006620;28;19913;-76
2023/01/28 09:05:43;;;;;;;;;;;2.90;99.90;;;;;;5000034;28;19917;-72
2023/01/28 09:08:10;;;;;;;;;;;2.90;99.90;;;;;;5014966;28;19941;-73
2023/01/28 09:10:38;;;;;;;;;;;3.00;99.90;;;;;;5007739;28;20498;-76
2023/01/28 09:13:08;;;;;;;;;;;2.80;99.90;;;;;;5016331;28;19917;-75
2023/01/28 09:15:33;;;;;;;;;;;2.80;99.90;;;;;;5013650;28;20536;-74
2023/01/28 09:17:59;;;;;;;;;;;2.80;99.90;;;;;;5007104;28;19916;-77
2023/01/28 09:20:25;;;;;;;;;;;2.70;99.90;;;;;;5012821;28;19925;-74
2023/01/28 09:22:50;;;;;;;;;;;2.80;99.90;;;;;;5010748;28;19932;-80
2023/01/28 09:25:16;;;;;;;;;;;2.80;99.90;;;;;;5009530;28;19921;-73
2023/01/28 09:27:41;;;;;;;;;;;2.80;99.90;;;;;;5006528;28;20319;-77
2023/01/28 09:30:09;;;;;;;;;;;2.80;99.90;;;;;;5010128;28;19960;-79
2023/01/28 09:32:34;;;;;;;;;;;2.80;99.90;;;;;;5010081;28;19981;-74
2023/01/28 09:35:00;;;;;;;;;;;2.90;99.90;;;;;;5018421;28;19972;-74
2023/01/28 09:37:25;;;;;;;;;;;2.90;99.90;;;;;;5017311;28;20279;-76
2023/01/28 09:39:51;;;;;;;;;;;2.90;99.90;;;;;;5018150;28;19921;-74
2023/01/28 09:42:36;;;;;;;;;;;2.90;99.90;;;;;;5010991;28;19952;-74
2023/01/28 09:45:04;;;;;;;;;;;2.90;99.90;;;;;;5015478;28;19914;-74
2023/01/28 09:47:36;;;;;;;;;;;3.10;99.90;;;;;;5002817;28;19938;-73
2023/01/28 09:50:04;;;;;;;;;;;3.10;99.90;;;;;;4999654;28;19910;-73
2023/01/28 09:52:33;;;;;;;;;;;3.10;99.90;;;;;;5002538;28;20012;-77
2023/01/28 09:55:01;;;;;;;;;;;3.30;99.90;;;;;;5014449;28;19971;-75
2023/01/28 09:57:39;;;;;;;;;;;3.40;99.90;;;;;;5004244;28;19956;-76
2023/01/28 10:00:17;;;;;;;;;;;3.30;99.90;;;;;;4991963;28;19917;-79
2023/01/28 10:03:01;;;;;;;;;;;3.40;99.90;;;;;;4989413;28;19968;-72
2023/01/28 10:05:34;;;;;;;;;;;3.40;99.90;;;;;;4992562;28;20319;-75
2023/01/28 10:08:11;;;;;;;;;;;3.40;99.90;;;;;;4996668;28;19924;-74
2023/01/28 10:10:42;;;;;;;;;;;3.40;99.90;;;;;;4993881;28;19964;-78
2023/01/28 10:13:08;;;;;;;;;;;3.40;99.90;;;;;;5010610;28;19914;-73
2023/01/28 10:15:39;;;;;;;;;;;3.30;99.90;;;;;;5006931;28;19931;-78
2023/01/28 10:18:08;;;;;;;;;;;3.20;99.90;;;;;;4992033;28;20008;-74
2023/01/28 10:20:47;;;;;;;;;;;3.20;99.90;;;;;;4997420;28;20387;-77
2023/01/28 10:23:23;;;;;;;;;;;3.40;99.90;;;;;;5002777;28;19914;-75
2023/01/28 10:25:48;;;;;;;;;;;3.50;99.90;;;;;;4999171;28;19988;-74
2023/01/28 10:28:19;;;;;;;;;;;3.70;99.90;;;;;;5015647;28;20000;-78
2023/01/28 10:30:45;;;;;;;;;;;3.90;99.90;;;;;;5008331;28;19921;-80
2023/01/28 10:33:19;;;;;;;;;;;3.90;99.90;;;;;;5006143;28;19921;-77
2023/01/28 10:35:46;;;;;;;;;;;4.00;99.90;;;;;;5018827;28;19944;-78
2023/01/28 10:38:13;;;;;;;;;;;3.90;99.90;;;;;;5014187;28;19920;-77
2023/01/28 10:40:42;;;;;;;;;;;4.00;99.90;;;;;;5022288;28;19910;-78
2023/01/28 10:43:08;;;;;;;;;;;4.00;99.90;;;;;;5015561;28;19920;-75
2023/01/28 10:45:44;;;;;;;;;;;4.00;99.90;;;;;;5005679;28;19913;-77
2023/01/28 10:48:22;;;;;;;;;;;3.90;99.90;;;;;;5005810;28;19921;-76
2023/01/28 10:50:52;;;;;;;;;;;4.30;99.90;;;;;;5006065;28;19913;-78
2023/01/28 10:53:17;;;;;;;;;;;4.70;99.90;;;;;;4998706;28;19914;-77
2023/01/28 10:55:51;;;;;;;;;;;4.60;99.90;;;;;;4998405;28;19924;-75
2023/01/28 10:58:21;;;;;;;;;;;4.50;99.90;;;;;;5003493;28;19913;-74
2023/01/28 11:00:51;;;;;;;;;;;4.50;99.90;;;;;;5003584;28;19914;-77
2023/01/28 11:03:19;;;;;;;;;;;4.50;99.90;;;;;;5003773;28;19909;-80
2023/01/28 11:05:52;;;;;;;;;;;4.50;99.90;;;;;;5019060;28;19914;-75
2023/01/28 11:08:18;;;;;;;;;;;4.30;99.90;;;;;;5013663;28;19965;-73
2023/01/28 11:10:44;;;;;;;;;;;4.40;99.90;;;;;;5003694;28;20000;-73
2023/01/28 11:13:15;;;;;;;;;;;4.70;99.90;;;;;;5008076;28;19921;-78
2023/01/28 11:15:51;;;;;;;;;;;4.80;99.90;;;;;;4998437;28;19916;-73
2023/01/28 11:18:23;;;;;;;;;;;4.60;99.90;;;;;;4993342;28;19909;-79
2023/01/28 11:20:51;;;;;;;;;;;4.80;99.90;;;;;;4999488;28;19918;-78
2023/01/28 11:23:18;;;;;;;;;;;5.00;99.90;;;;;;4999642;28;19918;-74
2023/01/28 11:25:43;;;;;;;;;;;5.30;99.90;;;;;;5008499;28;19999;-78
2023/01/28 11:28:16;;;;;;;;;;;5.20;99.90;;;;;;5004771;28;19914;-76
2023/01/28 11:30:41;;;;;;;;;;;5.00;99.90;;;;;;5013945;28;19921;-78
2023/01/28 11:33:16;;;;;;;;;;;5.00;99.90;;;;;;5010309;28;19913;-72
2023/01/28 11:35:41;;;;;;;;;;;5.00;99.90;;;;;;5006231;28;19917;-74
2023/01/28 11:38:16;;;;;;;;;;;5.10;99.90;;;;;;5009018;28;19913;-74
2023/01/28 11:40:52;;;;;;;;;;;5.50;99.90;;;;;;5008233;28;19921;-76
2023/01/28 11:43:19;;;;;;;;;;;5.50;99.90;;;;;;5009348;28;19921;-73
2023/01/28 11:45:56;;;;;;;;;;;6.00;99.90;;;;;;5008637;28;19909;-76
2023/01/28 11:48:27;;;;;;;;;;;6.40;99.90;;;;;;5004324;28;19965;-74
2023/01/28 11:51:02;;;;;;;;;;;5.90;99.90;;;;;;5007778;28;19914;-79
2023/01/28 11:53:28;;;;;;;;;;;5.70;99.90;;;;;;5007871;28;20553;-72
2023/01/28 11:56:19;;;;;;;;;;;6.30;99.90;;;;;;5012668;28;20594;-73
2023/01/28 11:58:50;;;;;;;;;;;6.10;99.90;;;;;;4976564;28;19953;-72
2023/01/28 12:01:18;;;;;;;;;;;6.30;99.90;;;;;;4994751;28;19975;-76
2023/01/28 12:03:57;;;;;;;;;;;6.70;99.90;;;;;;4997655;28;19913;-76
2023/01/28 12:06:31;;;;;;;;;;;6.60;99.90;;;;;;5002176;28;19945;-73
2023/01/28 12:09:16;;;;;;;;;;;6.90;99.90;;;;;;5012641;28;19992;-74
2023/01/28 12:14:56;;;;;;;;;;;8.00;99.90;;;;;;4969919;28;19920;-78
2023/01/28 12:17:22;;;;;;;;;;;8.20;99.90;;;;;;5000538;28;19921;-78
2023/01/28 12:19:57;;;;;;;;;;;8.30;99.90;;;;;;4999593;28;19917;-74
2023/01/28 12:22:32;;;;;;;;;;;8.30;99.90;;;;;;4993277;28;19909;-77
2023/01/28 12:25:13;;;;;;;;;;;7.30;99.90;;;;;;5003069;28;19967;-75
2023/01/28 12:27:50;;;;;;;;;;;6.70;99.90;;;;;;5008293;28;19918;-75
2023/01/28 12:30:15;;;;;;;;;;;7.00;99.90;;;;;;5006466;28;19924;-76
2023/01/28 12:32:41;;;;;;;;;;;6.70;99.90;;;;;;5020642;28;19913;-74
2023/01/28 12:35:06;;;;;;;;;;;6.90;99.90;;;;;;5006980;28;19914;-72
2023/01/28 12:37:50;;;;;;;;;;;7.20;99.90;;;;;;5017493;28;20461;-76
2023/01/28 12:40:22;;;;;;;;;;;6.70;99.90;;;;;;5008669;28;20648;-73
2023/01/28 12:42:50;;;;;;;;;;;6.20;99.90;;;;;;5013539;28;19910;-72
2023/01/28 12:45:45;;;;;;;;;;;5.80;99.90;;;;;;5017165;28;19920;-72
2023/01/28 12:48:14;;;;;;;;;;;5.60;99.90;;;;;;4997719;28;19926;-74
2023/01/28 12:50:48;;;;;;;;;;;5.50;99.90;;;;;;5012004;28;19928;-75
2023/01/28 12:53:52;;;;;;;;;;;5.70;99.90;;;;;;5011416;28;19909;-75
2023/01/28 12:56:34;;;;;;;;;;;6.00;99.90;;;;;;4967292;28;19921;-74
2023/01/28 12:59:02;;;;;;;;;;;6.40;99.90;;;;;;4964048;28;19961;-75
2023/01/28 13:01:36;;;;;;;;;;;6.50;99.90;;;;;;4985101;28;19914;-75
2023/01/28 13:04:06;;;;;;;;;;;6.60;99.90;;;;;;4982327;28;19916;-74
2023/01/28 13:06:34;;;;;;;;;;;6.10;99.90;;;;;;5001169;28;19929;-75
2023/01/28 13:09:05;;;;;;;;;;;6.10;99.90;;;;;;4995019;28;19913;-76
2023/01/28 13:11:35;;;;;;;;;;;6.70;99.90;;;;;;4999584;28;19988;-74
2023/01/28 13:14:01;;;;;;;;;;;7.40;99.90;;;;;;5002046;28;19910;-74
2023/01/28 13:16:26;;;;;;;;;;;7.70;99.90;;;;;;4998632;28;19914;-73
2023/01/28 13:18:52;;;;;;;;;;;7.70;99.90;;;;;;5016250;28;19932;-74
2023/01/28 13:21:23;;;;;;;;;;;7.90;99.90;;;;;;5008062;28;20355;-74
2023/01/28 13:23:50;;;;;;;;;;;8.40;99.90;;;;;;5006653;28;19917;-73
2023/01/28 13:26:19;;;;;;;;;;;8.00;99.90;;;;;;5011892;28;19936;-75
2023/01/28 13:28:45;;;;;;;;;;;7.50;99.90;;;;;;4996669;28;19914;-73
2023/01/28 13:31:16;;;;;;;;;;;7.20;99.90;;;;;;4996538;28;19952;-74
2023/01/28 13:33:42;;;;;;;;;;;6.50;99.90;;;;;;5000404;28;20131;-74
2023/01/28 13:36:11;;;;;;;;;;;6.00;99.90;;;;;;5001875;28;20015;-74
2023/01/28 13:38:37;;;;;;;;;;;6.10;99.90;;;;;;5011201;28;20411;-75
2023/01/28 13:41:05;;;;;;;;;;;6.40;99.90;;;;;;5017405;28;19956;-75
2023/01/28 13:43:36;;;;;;;;;;;6.10;99.90;;;;;;5022975;28;20484;-74
2023/01/28 13:46:03;;;;;;;;;;;6.10;99.90;;;;;;5014258;28;19920;-75
2023/01/28 13:48:49;;;;;;;;;;;6.00;99.90;;;;;;5014253;28;19956;-72
2023/01/28 13:51:17;;;;;;;;;;;5.50;99.90;;;;;;5015699;28;19913;-75
2023/01/28 13:53:46;;;;;;;;;;;5.60;99.90;;;;;;5015800;28;19909;-75
2023/01/28 13:56:18;;;;;;;;;;;5.70;99.90;;;;;;5004347;28;19940;-74
2023/01/28 13:58:44;;;;;;;;;;;5.90;99.90;;;;;;5005218;28;20287;-74
2023/01/28 14:01:12;;;;;;;;;;;5.60;99.90;;;;;;5002879;28;20411;-75
2023/01/28 14:04:16;;;;;;;;;;;5.80;99.90;;;;;;5010582;28;19967;-75
2023/01/28 14:06:42;;;;;;;;;;;5.80;99.90;;;;;;4966403;28;19918;-75
2023/01/28 14:09:07;;;;;;;;;;;5.90;99.90;;;;;;4965947;28;19922;-75
2023/01/28 14:11:47;;;;;;;;;;;5.90;99.90;;;;;;4983034;28;19953;-76
2023/01/28 14:14:12;;;;;;;;;;;6.00;99.90;;;;;;5007784;28;19924;-74
2023/01/28 14:16:51;;;;;;;;;;;6.10;99.90;;;;;;5005767;28;19913;-74
2023/01/28 14:19:18;;;;;;;;;;;6.10;99.90;;;;;;4995376;28;19956;-74
2023/01/28 14:21:44;;;;;;;;;;;6.00;99.90;;;;;;5002678;28;19956;-75
2023/01/28 14:24:17;;;;;;;;;;;6.00;99.90;;;;;;5005175;28;20003;-75
2023/01/28 14:26:51;;;;;;;;;;;5.90;99.90;;;;;;5010141;28;19917;-74
2023/01/28 14:29:16;;;;;;;;;;;5.90;99.90;;;;;;5008413;28;20065;-74
2023/01/28 14:31:42;;;;;;;;;;;5.60;99.90;;;;;;5008045;28;19944;-75
2023/01/28 14:34:19;;;;;;;;;;;5.20;99.90;;;;;;5001658;28;19909;-74
2023/01/28 14:36:45;;;;;;;;;;;5.40;99.90;;;;;;5007430;28;20455;-75
2023/01/28 14:39:22;;;;;;;;;;;5.40;99.90;;;;;;5022338;28;19920;-76
2023/01/28 14:41:48;;;;;;;;;;;5.10;99.90;;;;;;5017185;28;20001;-75
2023/01/28 14:44:22;;;;;;;;;;;5.20;99.90;;;;;;5003232;28;19975;-75
2023/01/28 14:46:56;;;;;;;;;;;5.30;99.90;;;;;;5008606;28;19932;-74
2023/01/28 14:49:38;;;;;;;;;;;5.40;99.90;;;;;;5003202;28;20562;-74
2023/01/28 14:52:04;;;;;;;;;;;5.30;99.90;;;;;;5009004;28;19910;-77
2023/01/28 14:54:38;;;;;;;;;;;5.10;99.90;;;;;;5009815;28;19974;-75
2023/01/28 14:57:11;;;;;;;;;;;5.20;99.90;;;;;;5006279;28;19957;-75
2023/01/28 14:59:45;;;;;;;;;;;5.30;99.90;;;;;;5002630;28;19914;-77
2023/01/28 15:02:17;;;;;;;;;;;5.10;99.90;;;;;;5010243;28;19917;-79
2023/01/28 15:04:43;;;;;;;;;;;5.10;99.90;;;;;;5016102;28;20470;-75
2023/01/28 15:07:16;;;;;;;;;;;5.10;99.90;;;;;;5014825;28;20003;-74
2023/01/28 15:09:42;;;;;;;;;;;5.10;99.90;;;;;;5012963;28;19971;-75
2023/01/28 15:12:08;;;;;;;;;;;4.90;99.90;;;;;;5004620;28;19909;-75
2023/01/28 15:14:34;;;;;;;;;;;4.80;99.90;;;;;;5012983;28;19921;-74